To NAV CANADA Home Page Login to a new session Search on AWWS site Feedback and Comments Disclaimer Vers la page française équivalente Tips FAQ What's new on the site To the Forecasts and Observations / NOTAM section To "File a Flight Plan" website Publications and other links Update of the User's profile FIC Telephone Numbers My Weather Data Folder Route Weather Data Regional Weather Data Local Weather Data To the Forecasts and Observations / NOTAM section
Request Generated 08/31/2015 at 17:41:37 UTC . Weather information available at that time is displayed.

METAR/TAF

CHURCHILL/MB    (show WxCam)

METAR CYYQ 311700Z 13018G26KT 10SM OVC010 10/08 A2966 RMK ST8 SLP045=
METAR CYYQ 311600Z 13020G26KT 10SM OVC008 09/08 A2966 RMK ST8 SLP044=
METAR CYYQ 311500Z 13022G27KT 10SM OVC007 09/08 A2968 RMK ST8 SLP051=

TAF CYYQ 311738Z 3118/0118 13015G25KT P6SM OVC010 TEMPO 3118/3120 5SM
-RA BR OVC008
FM312000 13020G30KT P6SM -RA OVC008 TEMPO 3120/0103 2SM -SHRA BR
OVC004
BECMG 0101/0103 04012KT
FM010300 04010KT 2SM -DZ BR OVC004 TEMPO 0103/0118 5SM BR OVC008
RMK NXT FCST BY 010000Z=
Your time UTC time
Weather data provided by Environment Canada and NAV CANADA